sensor_id;sensor_type;location;lat;lon;timestamp;temperature;humidity
74368;DHT22;64991;41.090;-8.118;2022-12-01T00:04:22;16.60;77.30
74368;DHT22;64991;41.090;-8.118;2022-12-01T00:09:26;16.60;77.30
74368;DHT22;64991;41.090;-8.118;2022-12-01T00:14:47;16.60;77.20
74368;DHT22;64991;41.090;-8.118;2022-12-01T00:19:57;16.60;77.10
74368;DHT22;64991;41.090;-8.118;2022-12-01T00:25:00;16.60;77.50
74368;DHT22;64991;41.090;-8.118;2022-12-01T00:30:04;16.60;77.40
74368;DHT22;64991;41.090;-8.118;2022-12-01T00:35:11;16.60;77.40
74368;DHT22;64991;41.090;-8.118;2022-12-01T00:40:15;16.60;77.50
74368;DHT22;64991;41.090;-8.118;2022-12-01T00:45:19;16.60;77.40
74368;DHT22;64991;41.090;-8.118;2022-12-01T00:50:23;16.60;77.40
74368;DHT22;64991;41.090;-8.118;2022-12-01T00:55:27;16.50;77.60
74368;DHT22;64991;41.090;-8.118;2022-12-01T01:00:31;16.60;77.20
74368;DHT22;64991;41.090;-8.118;2022-12-01T01:05:36;16.60;77.40
74368;DHT22;64991;41.090;-8.118;2022-12-01T01:10:41;16.60;77.50
74368;DHT22;64991;41.090;-8.118;2022-12-01T01:15:52;16.50;77.30
74368;DHT22;64991;41.090;-8.118;2022-12-01T01:21:02;16.50;77.40
74368;DHT22;64991;41.090;-8.118;2022-12-01T01:26:07;16.60;77.40
74368;DHT22;64991;41.090;-8.118;2022-12-01T01:31:13;16.50;77.50
74368;DHT22;64991;41.090;-8.118;2022-12-01T01:36:19;16.60;77.50
74368;DHT22;64991;41.090;-8.118;2022-12-01T01:41:22;16.60;77.50
74368;DHT22;64991;41.090;-8.118;2022-12-01T01:46:26;16.60;77.50
74368;DHT22;64991;41.090;-8.118;2022-12-01T01:51:34;16.50;77.50
74368;DHT22;64991;41.090;-8.118;2022-12-01T01:56:41;16.50;77.40
74368;DHT22;64991;41.090;-8.118;2022-12-01T02:01:46;16.60;77.50
74368;DHT22;64991;41.090;-8.118;2022-12-01T02:06:52;16.50;77.40
74368;DHT22;64991;41.090;-8.118;2022-12-01T02:12:00;16.60;77.50
74368;DHT22;64991;41.090;-8.118;2022-12-01T02:17:16;16.50;77.30
74368;DHT22;64991;41.090;-8.118;2022-12-01T02:22:29;16.60;77.60
74368;DHT22;64991;41.090;-8.118;2022-12-01T02:27:50;16.50;77.70
74368;DHT22;64991;41.090;-8.118;2022-12-01T02:33:09;16.50;77.50
74368;DHT22;64991;41.090;-8.118;2022-12-01T02:38:20;16.50;77.30
74368;DHT22;64991;41.090;-8.118;2022-12-01T02:43:28;16.60;77.50
74368;DHT22;64991;41.090;-8.118;2022-12-01T02:48:36;16.50;77.40
74368;DHT22;64991;41.090;-8.118;2022-12-01T02:53:41;16.50;77.50
74368;DHT22;64991;41.090;-8.118;2022-12-01T02:58:44;16.50;77.30
74368;DHT22;64991;41.090;-8.118;2022-12-01T03:09:21;16.50;77.40
74368;DHT22;64991;41.090;-8.118;2022-12-01T03:14:31;16.50;77.50
74368;DHT22;64991;41.090;-8.118;2022-12-01T03:19:40;16.40;77.30
74368;DHT22;64991;41.090;-8.118;2022-12-01T03:24:46;16.50;77.30
74368;DHT22;64991;41.090;-8.118;2022-12-01T03:29:50;16.40;77.30
74368;DHT22;64991;41.090;-8.118;2022-12-01T03:34:58;16.40;77.10
74368;DHT22;64991;41.090;-8.118;2022-12-01T03:40:06;16.40;77.20
74368;DHT22;64991;41.090;-8.118;2022-12-01T03:45:13;16.40;77.10
74368;DHT22;64991;41.090;-8.118;2022-12-01T03:50:19;16.50;77.10
74368;DHT22;64991;41.090;-8.118;2022-12-01T03:55:23;16.40;77.00
74368;DHT22;64991;41.090;-8.118;2022-12-01T04:00:29;16.40;77.10
74368;DHT22;64991;41.090;-8.118;2022-12-01T04:05:34;16.40;76.90
74368;DHT22;64991;41.090;-8.118;2022-12-01T04:10:38;16.50;77.10
74368;DHT22;64991;41.090;-8.118;2022-12-01T04:15:41;16.40;76.90
74368;DHT22;64991;41.090;-8.118;2022-12-01T04:20:46;16.40;76.90
74368;DHT22;64991;41.090;-8.118;2022-12-01T04:25:56;16.40;77.00
74368;DHT22;64991;41.090;-8.118;2022-12-01T04:31:00;16.40;76.80
74368;DHT22;64991;41.090;-8.118;2022-12-01T04:36:06;16.40;77.00
74368;DHT22;64991;41.090;-8.118;2022-12-01T04:41:10;16.40;77.20
74368;DHT22;64991;41.090;-8.118;2022-12-01T04:46:14;16.30;76.90
74368;DHT22;64991;41.090;-8.118;2022-12-01T04:51:19;16.50;76.90
74368;DHT22;64991;41.090;-8.118;2022-12-01T04:56:23;16.30;76.80
74368;DHT22;64991;41.090;-8.118;2022-12-01T05:01:26;16.40;76.70
74368;DHT22;64991;41.090;-8.118;2022-12-01T05:06:31;16.40;76.70
74368;DHT22;64991;41.090;-8.118;2022-12-01T05:11:35;16.40;76.70
74368;DHT22;64991;41.090;-8.118;2022-12-01T05:16:39;16.40;76.70
74368;DHT22;64991;41.090;-8.118;2022-12-01T05:21:44;16.30;76.60
74368;DHT22;64991;41.090;-8.118;2022-12-01T05:26:48;16.40;76.70
74368;DHT22;64991;41.090;-8.118;2022-12-01T05:31:52;16.30;76.60
74368;DHT22;64991;41.090;-8.118;2022-12-01T05:36:57;16.30;76.60
74368;DHT22;64991;41.090;-8.118;2022-12-01T05:42:00;16.40;76.70
74368;DHT22;64991;41.090;-8.118;2022-12-01T05:47:04;16.30;76.60
74368;DHT22;64991;41.090;-8.118;2022-12-01T05:52:09;16.40;76.50
74368;DHT22;64991;41.090;-8.118;2022-12-01T05:57:12;16.30;76.40
74368;DHT22;64991;41.090;-8.118;2022-12-01T06:02:16;16.30;76.40
74368;DHT22;64991;41.090;-8.118;2022-12-01T06:07:21;16.30;76.40
74368;DHT22;64991;41.090;-8.118;2022-12-01T06:12:26;16.40;76.40
74368;DHT22;64991;41.090;-8.118;2022-12-01T06:17:30;16.40;76.40
74368;DHT22;64991;41.090;-8.118;2022-12-01T06:22:42;16.40;76.60
74368;DHT22;64991;41.090;-8.118;2022-12-01T06:27:45;16.30;76.50
74368;DHT22;64991;41.090;-8.118;2022-12-01T06:32:48;16.40;76.40
74368;DHT22;64991;41.090;-8.118;2022-12-01T06:37:53;16.40;76.30
74368;DHT22;64991;41.090;-8.118;2022-12-01T06:42:58;16.30;76.50
74368;DHT22;64991;41.090;-8.118;2022-12-01T06:48:02;16.40;76.50
74368;DHT22;64991;41.090;-8.118;2022-12-01T06:53:07;16.30;76.40
74368;DHT22;64991;41.090;-8.118;2022-12-01T06:58:12;16.30;76.40
74368;DHT22;64991;41.090;-8.118;2022-12-01T07:03:15;16.30;76.40
74368;DHT22;64991;41.090;-8.118;2022-12-01T07:08:20;16.30;76.60
74368;DHT22;64991;41.090;-8.118;2022-12-01T07:13:24;16.30;76.50
74368;DHT22;64991;41.090;-8.118;2022-12-01T07:18:34;16.30;76.60
74368;DHT22;64991;41.090;-8.118;2022-12-01T07:23:40;16.20;76.50
74368;DHT22;64991;41.090;-8.118;2022-12-01T07:28:44;16.20;76.50
74368;DHT22;64991;41.090;-8.118;2022-12-01T07:33:48;16.20;76.40
74368;DHT22;64991;41.090;-8.118;2022-12-01T07:38:53;16.30;76.30
74368;DHT22;64991;41.090;-8.118;2022-12-01T07:43:57;16.30;76.50
74368;DHT22;64991;41.090;-8.118;2022-12-01T07:49:03;16.30;76.30
74368;DHT22;64991;41.090;-8.118;2022-12-01T07:54:09;16.20;76.30
74368;DHT22;64991;41.090;-8.118;2022-12-01T07:59:14;16.30;76.40
74368;DHT22;64991;41.090;-8.118;2022-12-01T08:04:18;16.30;76.20
74368;DHT22;64991;41.090;-8.118;2022-12-01T08:09:23;16.30;76.30
74368;DHT22;64991;41.090;-8.118;2022-12-01T08:14:27;16.30;76.40
74368;DHT22;64991;41.090;-8.118;2022-12-01T08:19:30;16.30;76.40
74368;DHT22;64991;41.090;-8.118;2022-12-01T08:24:35;16.20;76.40
74368;DHT22;64991;41.090;-8.118;2022-12-01T08:29:39;16.20;76.50
74368;DHT22;64991;41.090;-8.118;2022-12-01T08:34:42;16.30;76.40
74368;DHT22;64991;41.090;-8.118;2022-12-01T08:39:55;16.20;76.40
74368;DHT22;64991;41.090;-8.118;2022-12-01T08:44:58;16.30;76.30
74368;DHT22;64991;41.090;-8.118;2022-12-01T08:50:02;16.30;76.40
74368;DHT22;64991;41.090;-8.118;2022-12-01T08:55:08;16.30;76.40
74368;DHT22;64991;41.090;-8.118;2022-12-01T09:00:12;16.30;76.50
74368;DHT22;64991;41.090;-8.118;2022-12-01T09:05:16;16.40;76.30
74368;DHT22;64991;41.090;-8.118;2022-12-01T09:10:21;16.40;76.40
74368;DHT22;64991;41.090;-8.118;2022-12-01T09:15:25;16.30;76.30
74368;DHT22;64991;41.090;-8.118;2022-12-01T09:20:28;16.40;76.40
74368;DHT22;64991;41.090;-8.118;2022-12-01T09:25:33;16.40;76.40
74368;DHT22;64991;41.090;-8.118;2022-12-01T09:30:37;16.40;76.30
74368;DHT22;64991;41.090;-8.118;2022-12-01T09:35:40;16.30;76.50
74368;DHT22;64991;41.090;-8.118;2022-12-01T09:40:45;16.40;76.60
74368;DHT22;64991;41.090;-8.118;2022-12-01T09:45:50;16.40;76.50
74368;DHT22;64991;41.090;-8.118;2022-12-01T09:50:56;16.40;76.70
74368;DHT22;64991;41.090;-8.118;2022-12-01T09:56:01;16.40;76.50
74368;DHT22;64991;41.090;-8.118;2022-12-01T10:01:13;16.40;76.60
74368;DHT22;64991;41.090;-8.118;2022-12-01T10:06:18;16.40;76.70
74368;DHT22;64991;41.090;-8.118;2022-12-01T10:11:31;16.50;76.90
74368;DHT22;64991;41.090;-8.118;2022-12-01T10:16:37;16.40;76.80
74368;DHT22;64991;41.090;-8.118;2022-12-01T10:21:51;16.50;76.80
74368;DHT22;64991;41.090;-8.118;2022-12-01T10:27:04;16.50;77.00
74368;DHT22;64991;41.090;-8.118;2022-12-01T10:32:16;16.50;77.10
74368;DHT22;64991;41.090;-8.118;2022-12-01T10:37:21;16.50;77.20
74368;DHT22;64991;41.090;-8.118;2022-12-01T10:42:28;16.60;77.10
74368;DHT22;64991;41.090;-8.118;2022-12-01T10:47:38;16.60;77.20
74368;DHT22;64991;41.090;-8.118;2022-12-01T10:53:25;16.60;77.20
74368;DHT22;64991;41.090;-8.118;2022-12-01T10:58:32;16.60;77.30
74368;DHT22;64991;41.090;-8.118;2022-12-01T11:03:36;16.60;77.40
74368;DHT22;64991;41.090;-8.118;2022-12-01T11:08:42;16.60;77.60
74368;DHT22;64991;41.090;-8.118;2022-12-01T11:13:49;16.50;77.60
74368;DHT22;64991;41.090;-8.118;2022-12-01T11:18:52;16.60;77.70
74368;DHT22;64991;41.090;-8.118;2022-12-01T11:24:11;16.70;77.70
74368;DHT22;64991;41.090;-8.118;2022-12-01T11:29:32;16.60;77.50
74368;DHT22;64991;41.090;-8.118;2022-12-01T11:34:38;16.70;77.70
74368;DHT22;64991;41.090;-8.118;2022-12-01T11:39:41;16.60;77.70
74368;DHT22;64991;41.090;-8.118;2022-12-01T11:44:48;16.60;77.60
74368;DHT22;64991;41.090;-8.118;2022-12-01T11:49:54;16.60;77.60
74368;DHT22;64991;41.090;-8.118;2022-12-01T11:55:01;16.70;77.70
74368;DHT22;64991;41.090;-8.118;2022-12-01T12:00:13;16.70;77.60
74368;DHT22;64991;41.090;-8.118;2022-12-01T12:05:26;16.70;77.50
74368;DHT22;64991;41.090;-8.118;2022-12-01T12:10:47;16.80;77.60
74368;DHT22;64991;41.090;-8.118;2022-12-01T12:15:59;16.70;77.70
74368;DHT22;64991;41.090;-8.118;2022-12-01T12:21:09;16.70;77.70
74368;DHT22;64991;41.090;-8.118;2022-12-01T12:26:18;16.70;77.40
74368;DHT22;64991;41.090;-8.118;2022-12-01T12:31:26;16.80;77.50
74368;DHT22;64991;41.090;-8.118;2022-12-01T12:36:34;16.70;77.50
74368;DHT22;64991;41.090;-8.118;2022-12-01T12:41:43;16.70;77.40
74368;DHT22;64991;41.090;-8.118;2022-12-01T12:46:51;16.80;77.50
74368;DHT22;64991;41.090;-8.118;2022-12-01T12:52:00;16.80;77.70
74368;DHT22;64991;41.090;-8.118;2022-12-01T12:57:18;16.70;77.50
74368;DHT22;64991;41.090;-8.118;2022-12-01T13:02:26;16.80;77.60
74368;DHT22;64991;41.090;-8.118;2022-12-01T13:07:36;16.70;77.50
74368;DHT22;64991;41.090;-8.118;2022-12-01T13:12:44;16.80;77.30
74368;DHT22;64991;41.090;-8.118;2022-12-01T13:17:59;16.80;77.00
74368;DHT22;64991;41.090;-8.118;2022-12-01T13:23:05;16.80;77.50
74368;DHT22;64991;41.090;-8.118;2022-12-01T13:28:12;16.80;77.30
74368;DHT22;64991;41.090;-8.118;2022-12-01T13:33:20;16.90;77.40
74368;DHT22;64991;41.090;-8.118;2022-12-01T13:38:25;16.70;77.20
74368;DHT22;64991;41.090;-8.118;2022-12-01T13:43:31;16.80;77.40
74368;DHT22;64991;41.090;-8.118;2022-12-01T13:48:49;16.90;77.30
74368;DHT22;64991;41.090;-8.118;2022-12-01T13:54:01;16.80;77.20
74368;DHT22;64991;41.090;-8.118;2022-12-01T14:04:44;16.80;77.10
74368;DHT22;64991;41.090;-8.118;2022-12-01T14:09:49;16.80;77.10
74368;DHT22;64991;41.090;-8.118;2022-12-01T14:14:55;16.80;77.20
74368;DHT22;64991;41.090;-8.118;2022-12-01T14:20:04;16.90;77.00
74368;DHT22;64991;41.090;-8.118;2022-12-01T14:25:21;16.80;76.80
74368;DHT22;64991;41.090;-8.118;2022-12-01T14:36:05;16.80;77.00
74368;DHT22;64991;41.090;-8.118;2022-12-01T14:41:13;16.80;76.80
74368;DHT22;64991;41.090;-8.118;2022-12-01T14:46:23;16.80;77.00
74368;DHT22;64991;41.090;-8.118;2022-12-01T14:51:30;16.80;76.90
74368;DHT22;64991;41.090;-8.118;2022-12-01T14:56:35;16.80;77.00
74368;DHT22;64991;41.090;-8.118;2022-12-01T15:01:39;16.80;76.70
74368;DHT22;64991;41.090;-8.118;2022-12-01T15:06:44;16.90;76.60
74368;DHT22;64991;41.090;-8.118;2022-12-01T15:11:49;16.80;76.70
74368;DHT22;64991;41.090;-8.118;2022-12-01T15:16:54;16.80;76.80
74368;DHT22;64991;41.090;-8.118;2022-12-01T15:22:01;16.80;76.80
74368;DHT22;64991;41.090;-8.118;2022-12-01T15:27:21;16.80;76.80
74368;DHT22;64991;41.090;-8.118;2022-12-01T15:32:26;16.80;76.60
74368;DHT22;64991;41.090;-8.118;2022-12-01T15:37:33;16.80;76.60
74368;DHT22;64991;41.090;-8.118;2022-12-01T15:42:42;16.80;76.50
74368;DHT22;64991;41.090;-8.118;2022-12-01T15:47:46;16.80;76.50
74368;DHT22;64991;41.090;-8.118;2022-12-01T15:52:52;16.80;76.60
74368;DHT22;64991;41.090;-8.118;2022-12-01T15:57:55;16.80;76.30
74368;DHT22;64991;41.090;-8.118;2022-12-01T16:02:59;16.80;76.40
74368;DHT22;64991;41.090;-8.118;2022-12-01T16:08:13;16.80;76.60
74368;DHT22;64991;41.090;-8.118;2022-12-01T16:18:50;16.70;76.40
74368;DHT22;64991;41.090;-8.118;2022-12-01T16:24:02;16.70;76.40
74368;DHT22;64991;41.090;-8.118;2022-12-01T16:29:13;16.70;76.30
74368;DHT22;64991;41.090;-8.118;2022-12-01T16:34:21;16.70;76.30
74368;DHT22;64991;41.090;-8.118;2022-12-01T16:39:46;16.70;76.50
74368;DHT22;64991;41.090;-8.118;2022-12-01T16:44:50;16.70;76.40
74368;DHT22;64991;41.090;-8.118;2022-12-01T16:49:54;16.80;76.40
74368;DHT22;64991;41.090;-8.118;2022-12-01T16:54:59;16.70;76.40
74368;DHT22;64991;41.090;-8.118;2022-12-01T17:00:02;16.70;76.20
74368;DHT22;64991;41.090;-8.118;2022-12-01T17:05:07;16.70;76.40
74368;DHT22;64991;41.090;-8.118;2022-12-01T17:10:12;16.80;76.40
74368;DHT22;64991;41.090;-8.118;2022-12-01T17:15:16;16.80;76.30
74368;DHT22;64991;41.090;-8.118;2022-12-01T17:20:20;16.70;76.20
74368;DHT22;64991;41.090;-8.118;2022-12-01T17:25:25;16.70;76.40
74368;DHT22;64991;41.090;-8.118;2022-12-01T17:30:28;16.70;76.30
74368;DHT22;64991;41.090;-8.118;2022-12-01T17:35:31;16.70;76.40
74368;DHT22;64991;41.090;-8.118;2022-12-01T17:40:37;16.60;76.10
74368;DHT22;64991;41.090;-8.118;2022-12-01T17:45:41;16.70;76.30
74368;DHT22;64991;41.090;-8.118;2022-12-01T17:50:45;16.70;76.10
74368;DHT22;64991;41.090;-8.118;2022-12-01T17:55:49;16.70;76.00
74368;DHT22;64991;41.090;-8.118;2022-12-01T18:00:53;16.70;76.30
74368;DHT22;64991;41.090;-8.118;2022-12-01T18:05:57;16.60;76.30
74368;DHT22;64991;41.090;-8.118;2022-12-01T18:11:03;16.70;76.20
74368;DHT22;64991;41.090;-8.118;2022-12-01T18:16:09;16.60;76.10
74368;DHT22;64991;41.090;-8.118;2022-12-01T18:21:15;16.70;76.40
74368;DHT22;64991;41.090;-8.118;2022-12-01T18:26:21;16.60;76.30
74368;DHT22;64991;41.090;-8.118;2022-12-01T18:31:25;16.70;75.80
74368;DHT22;64991;41.090;-8.118;2022-12-01T18:36:30;16.70;76.00
74368;DHT22;64991;41.090;-8.118;2022-12-01T18:41:36;16.70;75.90
74368;DHT22;64991;41.090;-8.118;2022-12-01T18:46:39;16.70;75.90
74368;DHT22;64991;41.090;-8.118;2022-12-01T18:51:43;16.60;75.90
74368;DHT22;64991;41.090;-8.118;2022-12-01T18:56:50;16.70;75.60
74368;DHT22;64991;41.090;-8.118;2022-12-01T19:01:55;16.60;75.80
74368;DHT22;64991;41.090;-8.118;2022-12-01T19:06:59;16.60;75.70
74368;DHT22;64991;41.090;-8.118;2022-12-01T19:12:04;16.60;75.80
74368;DHT22;64991;41.090;-8.118;2022-12-01T19:17:08;16.60;75.60
74368;DHT22;64991;41.090;-8.118;2022-12-01T19:22:11;16.60;75.80
74368;DHT22;64991;41.090;-8.118;2022-12-01T19:27:16;16.60;75.40
74368;DHT22;64991;41.090;-8.118;2022-12-01T19:32:19;16.60;75.70
74368;DHT22;64991;41.090;-8.118;2022-12-01T19:37:23;16.70;75.50
74368;DHT22;64991;41.090;-8.118;2022-12-01T19:42:28;16.60;75.30
74368;DHT22;64991;41.090;-8.118;2022-12-01T19:47:31;16.60;75.40
74368;DHT22;64991;41.090;-8.118;2022-12-01T19:52:35;16.70;75.50
74368;DHT22;64991;41.090;-8.118;2022-12-01T19:57:43;16.70;75.40
74368;DHT22;64991;41.090;-8.118;2022-12-01T20:02:46;16.70;75.70
74368;DHT22;64991;41.090;-8.118;2022-12-01T20:07:50;16.60;75.40
74368;DHT22;64991;41.090;-8.118;2022-12-01T20:12:55;16.60;75.30
74368;DHT22;64991;41.090;-8.118;2022-12-01T20:17:58;16.60;75.50
74368;DHT22;64991;41.090;-8.118;2022-12-01T20:23:02;16.60;75.60
74368;DHT22;64991;41.090;-8.118;2022-12-01T20:28:06;16.60;75.40
74368;DHT22;64991;41.090;-8.118;2022-12-01T20:33:10;16.60;75.40
74368;DHT22;64991;41.090;-8.118;2022-12-01T20:38:13;16.60;75.30
74368;DHT22;64991;41.090;-8.118;2022-12-01T20:43:18;16.50;75.00
74368;DHT22;64991;41.090;-8.118;2022-12-01T20:48:22;16.60;75.30
74368;DHT22;64991;41.090;-8.118;2022-12-01T20:53:25;16.60;75.40
74368;DHT22;64991;41.090;-8.118;2022-12-01T20:58:30;16.60;75.40
74368;DHT22;64991;41.090;-8.118;2022-12-01T21:03:38;16.60;75.40
74368;DHT22;64991;41.090;-8.118;2022-12-01T21:08:43;16.60;75.00
74368;DHT22;64991;41.090;-8.118;2022-12-01T21:13:50;16.60;75.10
74368;DHT22;64991;41.090;-8.118;2022-12-01T21:18:55;16.60;75.20
74368;DHT22;64991;41.090;-8.118;2022-12-01T21:24:08;16.60;75.20
74368;DHT22;64991;41.090;-8.118;2022-12-01T21:29:19;16.60;75.00
74368;DHT22;64991;41.090;-8.118;2022-12-01T21:34:26;16.60;74.70
74368;DHT22;64991;41.090;-8.118;2022-12-01T21:39:30;16.60;75.10
74368;DHT22;64991;41.090;-8.118;2022-12-01T21:44:36;16.60;74.90
74368;DHT22;64991;41.090;-8.118;2022-12-01T21:49:40;16.60;74.80
74368;DHT22;64991;41.090;-8.118;2022-12-01T21:54:45;16.60;74.90
74368;DHT22;64991;41.090;-8.118;2022-12-01T21:59:51;16.50;75.00
74368;DHT22;64991;41.090;-8.118;2022-12-01T22:04:56;16.60;74.90
74368;DHT22;64991;41.090;-8.118;2022-12-01T22:10:01;16.60;75.00
74368;DHT22;64991;41.090;-8.118;2022-12-01T22:15:27;16.60;75.00
74368;DHT22;64991;41.090;-8.118;2022-12-01T22:20:34;16.60;75.10
74368;DHT22;64991;41.090;-8.118;2022-12-01T22:25:38;16.50;74.80
74368;DHT22;64991;41.090;-8.118;2022-12-01T22:30:44;16.60;74.90
74368;DHT22;64991;41.090;-8.118;2022-12-01T22:35:48;16.60;74.70
74368;DHT22;64991;41.090;-8.118;2022-12-01T22:40:53;16.50;75.10
74368;DHT22;64991;41.090;-8.118;2022-12-01T22:46:06;16.50;74.80
74368;DHT22;64991;41.090;-8.118;2022-12-01T22:51:38;16.60;74.80
74368;DHT22;64991;41.090;-8.118;2022-12-01T22:56:44;16.60;74.70
74368;DHT22;64991;41.090;-8.118;2022-12-01T23:01:51;16.50;74.90
74368;DHT22;64991;41.090;-8.118;2022-12-01T23:06:56;16.60;75.00
74368;DHT22;64991;41.090;-8.118;2022-12-01T23:12:14;16.50;74.80
74368;DHT22;64991;41.090;-8.118;2022-12-01T23:17:25;16.50;75.10
74368;DHT22;64991;41.090;-8.118;2022-12-01T23:22:29;16.60;75.20
74368;DHT22;64991;41.090;-8.118;2022-12-01T23:27:33;16.50;74.80
74368;DHT22;64991;41.090;-8.118;2022-12-01T23:32:37;16.60;74.90
74368;DHT22;64991;41.090;-8.118;2022-12-01T23:37:41;16.40;75.00
74368;DHT22;64991;41.090;-8.118;2022-12-01T23:42:46;16.50;75.00
74368;DHT22;64991;41.090;-8.118;2022-12-01T23:47:51;16.40;75.00
74368;DHT22;64991;41.090;-8.118;2022-12-01T23:52:55;16.50;75.00
74368;DHT22;64991;41.090;-8.118;2022-12-01T23:57:59;16.40;75.00
